Flight Track Log - Related Links

Times and Time Zones

All times are in EDT time to prevent confusion due to time zone crossing. See the N244A flight status page for this flight to view local times or setup timezone preferences in your user account.

Time Position Orientation Groundspeed Altitude Reporting Facility
EDT Latitude Longitude Course Direction KTS MPH feet Rate Location/Type
Sat 12:54:00 PM 40.8760 -73.5244 149° Southeast  Level Estimated
Sat 12:55:00 PM 40.8734 -73.5225 150° Southeast  Level Estimated
Sat 12:56:00 PM 40.8709 -73.5206 150° Southeast  Level Estimated
Sat 12:57:00 PM 40.8684 -73.5187 150° Southeast  Level Estimated
Sat 12:58:00 PM 40.8659 -73.5168 150° Southeast  Level Estimated
Sat 12:59:00 PM 40.8634 -73.5149 150° Southeast  Level Estimated
Sat 01:00:00 PM 40.8608 -73.5130 150° Southeast  Level Estimated
Sat 01:01:00 PM 40.8583 -73.5110 150° Southeast  Level Estimated
Sat 01:02:00 PM 40.8558 -73.5091 150° Southeast  Level Estimated
Sat 01:03:00 PM 40.8533 -73.5072 150° Southeast  Level Estimated
Sat 01:04:00 PM 40.8508 -73.5053 150° Southeast  Level Estimated
Sat 01:05:00 PM 40.8482 -73.5034 150° Southeast  Level Estimated
Sat 01:06:00 PM 40.8457 -73.5015 150° Southeast  Level Estimated
Sat 01:07:00 PM 40.8432 -73.4996 150° Southeast  Level Estimated
Sat 01:08:00 PM 40.8407 -73.4977 150° Southeast  Level Estimated
Sat 01:09:00 PM 40.8382 -73.4958 150° Southeast  Level Estimated
Sat 01:10:00 PM 40.8356 -73.4939 150° Southeast  Level Estimated
Sat 01:11:00 PM 40.8331 -73.4920 150° Southeast  Level Estimated
Sat 01:12:00 PM 40.8306 -73.4901 150° Southeast  Level Estimated
Sat 01:13:00 PM 40.8281 -73.4882 150° Southeast  Level Estimated
Sat 01:14:00 PM 40.8256 -73.4863 150° Southeast  Level Estimated
Sat 01:15:00 PM 40.8230 -73.4844 150° Southeast  Level Estimated
Sat 01:16:00 PM 40.8205 -73.4825 150° Southeast  Level Estimated
Sat 01:17:00 PM 40.8180 -73.4806 150° Southeast  Level Estimated
Sat 01:18:00 PM 40.8155 -73.4787 150° Southeast  Level Estimated
Sat 01:19:00 PM 40.8130 -73.4768 150° Southeast  Level Estimated
Sat 01:20:00 PM 40.8104 -73.4749 150° Southeast  Level Estimated
Sat 01:21:00 PM 40.8079 -73.4730 150° Southeast  Level Estimated
Sat 01:22:00 PM 40.8054 -73.4711 150° Southeast  Level Estimated
Sat 01:23:00 PM 40.8029 -73.4692 150° Southeast  Level Estimated
Sat 01:24:00 PM 40.8004 -73.4673 150° Southeast  Level Estimated
Sat 01:25:00 PM 40.7978 -73.4654 150° Southeast  Level Estimated
Sat 01:26:00 PM 40.7953 -73.4635 150° Southeast  Level Estimated
Sat 01:27:00 PM 40.7928 -73.4616 150° Southeast  Level Estimated
Sat 01:28:00 PM 40.7903 -73.4597 150° Southeast  Level Estimated
Sat 01:29:00 PM 40.7878 -73.4578 150° Southeast  Level Estimated
Sat 01:30:00 PM 40.7852 -73.4559 150° Southeast  Level Estimated
Sat 01:31:00 PM 40.7827 -73.4540 150° Southeast  Level Estimated
Sat 01:32:00 PM 40.7802 -73.4521 150° Southeast  Level Estimated
Sat 01:33:00 PM 40.7777 -73.4502 150° Southeast  Level Estimated
Sat 01:34:00 PM 40.7752 -73.4483 150° Southeast  Level Estimated
Sat 01:35:00 PM 40.7726 -73.4464 150° Southeast  Level Estimated
Sat 01:36:00 PM 40.7701 -73.4445 150° Southeast  Level Estimated
Sat 01:37:00 PM 40.7676 -73.4426 150° Southeast  Level Estimated
Sat 01:38:00 PM 40.7651 -73.4407 150° Southeast  Level Estimated
Sat 01:39:00 PM 40.7626 -73.4388 150° Southeast  Level Estimated
Sat 01:40:00 PM 40.7600 -73.4369 150° Southeast  Level Estimated
Sat 01:41:00 PM 40.7575 -73.4350 150° Southeast  Level Estimated
Sat 01:42:00 PM 40.7550 -73.4331 150° Southeast  Level Estimated
Sat 01:43:00 PM 40.7525 -73.4312 150° Southeast  Level Estimated
Sat 01:44:00 PM 40.7500 -73.4293 150° Southeast  Level Estimated
Sat 01:45:00 PM 40.7474 -73.4274 150° Southeast  Level Estimated
Sat 01:46:00 PM 40.7449 -73.4255 150° Southeast  Level Estimated
Sat 01:47:00 PM 40.7424 -73.4236 150° Southeast  Level Estimated
Sat 01:48:00 PM 40.7399 -73.4217 150° Southeast  Level Estimated
Sat 01:49:00 PM 40.7373 -73.4198 150° Southeast  Level Estimated
Sat 01:50:00 PM 40.7348 -73.4179 150° Southeast  Level Estimated
Sat 01:51:00 PM 40.7323 -73.4161 150° Southeast  Level Estimated
Sat 01:52:00 PM 40.7298 -73.4141 150° Southeast  Level Estimated
Sat 01:53:00 PM 40.7288 -73.4134 151° Southeast  Level Estimated
Sat 01:54:00 PM 40.7288 -73.4134 131° Southeast  Level Estimated
Sat 01:55:00 PM 40.7288 -73.4134 131° Southeast  Level Estimated
Sat 01:56:00 PM 40.7288 -73.4134 131° Southeast  Level Estimated
Sat 01:57:00 PM 40.7288 -73.4134 131° Southeast  Level Estimated
Sat 01:58:00 PM 40.7288 -73.4134 131° Southeast  Level Estimated
Sat 01:59:00 PM 40.7288 -73.4134 131° Southeast  Level Estimated
Sat 02:00:00 PM 40.7288 -73.4134 131° Southeast  Level Estimated
Sat 02:01:00 PM 40.7288 -73.4134 131° Southeast  Level Estimated
Sat 02:02:00 PM 40.7288 -73.4134 131° Southeast  Level Estimated
Sat 02:03:00 PM 40.7288 -73.4134 131° Southeast  Level Estimated
Sat 02:04:00 PM 40.7288 -73.4134 131° Southeast  Level Estimated
Sat 02:05:00 PM 40.7288 -73.4134 131° Southeast  Level Estimated
Sat 02:06:00 PM 40.7288 -73.4134 131° Southeast  Level Estimated
Sat 02:07:00 PM 40.7288 -73.4134 131° Southeast  Level Estimated
Sat 02:08:00 PM 40.7288 -73.4134 131° Southeast  Level Estimated

Login

Don't have an account? Register now (free) for customized features, flight alerts, and more!